sensor_id;sensor_type;location;lat;lon;timestamp;P1;durP1;ratioP1;P2;durP2;ratioP2
45314;SDS011;31051;51.540;5.852;2023-10-31T00:03:22;2.9;;;2.2;;
45314;SDS011;31051;51.540;5.852;2023-10-31T00:16:21;6.3;;;5.7;;
45314;SDS011;31051;51.540;5.852;2023-10-31T00:29:20;8.6;;;7.8;;
45314;SDS011;31051;51.540;5.852;2023-10-31T00:42:20;11.3;;;10.3;;
45314;SDS011;31051;51.540;5.852;2023-10-31T00:55:19;12.0;;;10.9;;
45314;SDS011;31051;51.540;5.852;2023-10-31T01:08:18;10.2;;;9.2;;
45314;SDS011;31051;51.540;5.852;2023-10-31T01:21:18;8.0;;;7.2;;
45314;SDS011;31051;51.540;5.852;2023-10-31T01:34:17;7.0;;;5.6;;
45314;SDS011;31051;51.540;5.852;2023-10-31T01:47:16;9.7;;;8.7;;
45314;SDS011;31051;51.540;5.852;2023-10-31T02:00:15;17.9;;;15.8;;
45314;SDS011;31051;51.540;5.852;2023-10-31T02:13:15;20.0;;;18.0;;
45314;SDS011;31051;51.540;5.852;2023-10-31T02:26:14;20.4;;;18.2;;
45314;SDS011;31051;51.540;5.852;2023-10-31T02:39:13;20.5;;;18.3;;
45314;SDS011;31051;51.540;5.852;2023-10-31T02:52:13;20.4;;;18.2;;
45314;SDS011;31051;51.540;5.852;2023-10-31T03:05:12;20.3;;;18.2;;
45314;SDS011;31051;51.540;5.852;2023-10-31T03:18:11;21.5;;;19.3;;
45314;SDS011;31051;51.540;5.852;2023-10-31T03:31:11;21.2;;;19.1;;
45314;SDS011;31051;51.540;5.852;2023-10-31T03:44:10;20.4;;;18.4;;
45314;SDS011;31051;51.540;5.852;2023-10-31T03:57:09;23.7;;;21.5;;
45314;SDS011;31051;51.540;5.852;2023-10-31T04:10:09;24.6;;;22.2;;
45314;SDS011;31051;51.540;5.852;2023-10-31T04:23:08;26.0;;;23.4;;
45314;SDS011;31051;51.540;5.852;2023-10-31T04:36:07;28.0;;;25.1;;
45314;SDS011;31051;51.540;5.852;2023-10-31T04:49:06;28.2;;;25.4;;
45314;SDS011;31051;51.540;5.852;2023-10-31T05:02:06;27.0;;;24.4;;
45314;SDS011;31051;51.540;5.852;2023-10-31T05:15:05;24.3;;;22.0;;
45314;SDS011;31051;51.540;5.852;2023-10-31T05:28:04;17.9;;;16.3;;
45314;SDS011;31051;51.540;5.852;2023-10-31T05:41:04;17.2;;;15.7;;
45314;SDS011;31051;51.540;5.852;2023-10-31T05:54:03;12.1;;;11.0;;
45314;SDS011;31051;51.540;5.852;2023-10-31T06:07:02;15.8;;;14.3;;
45314;SDS011;31051;51.540;5.852;2023-10-31T06:20:02;18.4;;;16.8;;
45314;SDS011;31051;51.540;5.852;2023-10-31T06:33:01;19.5;;;17.8;;
45314;SDS011;31051;51.540;5.852;2023-10-31T06:46:00;19.5;;;17.8;;
45314;SDS011;31051;51.540;5.852;2023-10-31T06:59:00;17.3;;;15.9;;
45314;SDS011;31051;51.540;5.852;2023-10-31T07:11:59;16.3;;;15.0;;
45314;SDS011;31051;51.540;5.852;2023-10-31T07:24:58;16.9;;;15.5;;
45314;SDS011;31051;51.540;5.852;2023-10-31T07:37:57;17.7;;;16.3;;
45314;SDS011;31051;51.540;5.852;2023-10-31T07:50:57;18.0;;;16.5;;
45314;SDS011;31051;51.540;5.852;2023-10-31T08:03:56;15.2;;;14.0;;
45314;SDS011;31051;51.540;5.852;2023-10-31T08:16:55;12.3;;;11.2;;
45314;SDS011;31051;51.540;5.852;2023-10-31T08:29:55;13.3;;;12.2;;
45314;SDS011;31051;51.540;5.852;2023-10-31T08:42:54;15.3;;;14.0;;
45314;SDS011;31051;51.540;5.852;2023-10-31T08:55:53;17.1;;;15.7;;
45314;SDS011;31051;51.540;5.852;2023-10-31T09:08:53;17.0;;;15.5;;
45314;SDS011;31051;51.540;5.852;2023-10-31T09:21:52;15.5;;;14.0;;
45314;SDS011;31051;51.540;5.852;2023-10-31T09:34:51;13.6;;;12.3;;
45314;SDS011;31051;51.540;5.852;2023-10-31T09:47:51;12.7;;;11.3;;
45314;SDS011;31051;51.540;5.852;2023-10-31T10:00:50;10.9;;;9.8;;
45314;SDS011;31051;51.540;5.852;2023-10-31T10:13:49;11.9;;;10.4;;
45314;SDS011;31051;51.540;5.852;2023-10-31T10:26:48;10.0;;;8.4;;
45314;SDS011;31051;51.540;5.852;2023-10-31T10:39:48;10.0;;;8.6;;
45314;SDS011;31051;51.540;5.852;2023-10-31T10:52:47;10.2;;;9.1;;
45314;SDS011;31051;51.540;5.852;2023-10-31T11:05:46;8.9;;;8.0;;
45314;SDS011;31051;51.540;5.852;2023-10-31T11:18:46;10.0;;;9.1;;
45314;SDS011;31051;51.540;5.852;2023-10-31T11:31:45;9.2;;;8.2;;
45314;SDS011;31051;51.540;5.852;2023-10-31T11:44:44;8.8;;;7.9;;
45314;SDS011;31051;51.540;5.852;2023-10-31T11:57:44;7.4;;;6.6;;
45314;SDS011;31051;51.540;5.852;2023-10-31T12:10:43;8.3;;;7.5;;
45314;SDS011;31051;51.540;5.852;2023-10-31T12:23:42;7.2;;;6.4;;
45314;SDS011;31051;51.540;5.852;2023-10-31T12:36:42;5.7;;;5.1;;
45314;SDS011;31051;51.540;5.852;2023-10-31T12:49:41;4.5;;;3.7;;
45314;SDS011;31051;51.540;5.852;2023-10-31T13:02:40;3.5;;;2.4;;
45314;SDS011;31051;51.540;5.852;2023-10-31T13:15:40;3.0;;;1.7;;
45314;SDS011;31051;51.540;5.852;2023-10-31T13:28:39;3.2;;;1.8;;
45314;SDS011;31051;51.540;5.852;2023-10-31T13:41:38;3.5;;;2.0;;
45314;SDS011;31051;51.540;5.852;2023-10-31T13:54:38;4.6;;;2.0;;
45314;SDS011;31051;51.540;5.852;2023-10-31T14:07:37;3.5;;;1.7;;
45314;SDS011;31051;51.540;5.852;2023-10-31T14:20:36;4.2;;;1.8;;
45314;SDS011;31051;51.540;5.852;2023-10-31T14:33:36;3.4;;;1.6;;
45314;SDS011;31051;51.540;5.852;2023-10-31T14:46:35;4.5;;;1.9;;
45314;SDS011;31051;51.540;5.852;2023-10-31T14:59:34;4.6;;;2.0;;
45314;SDS011;31051;51.540;5.852;2023-10-31T15:12:34;6.0;;;2.2;;
45314;SDS011;31051;51.540;5.852;2023-10-31T15:25:33;6.9;;;2.7;;
45314;SDS011;31051;51.540;5.852;2023-10-31T15:38:32;5.8;;;2.9;;
45314;SDS011;31051;51.540;5.852;2023-10-31T15:51:32;6.4;;;3.4;;
45314;SDS011;31051;51.540;5.852;2023-10-31T16:04:31;5.3;;;3.5;;
45314;SDS011;31051;51.540;5.852;2023-10-31T16:17:30;5.0;;;3.7;;
45314;SDS011;31051;51.540;5.852;2023-10-31T16:30:30;4.6;;;3.3;;
45314;SDS011;31051;51.540;5.852;2023-10-31T16:43:29;4.4;;;3.6;;
45314;SDS011;31051;51.540;5.852;2023-10-31T16:56:28;5.0;;;4.3;;
45314;SDS011;31051;51.540;5.852;2023-10-31T17:09:28;5.3;;;4.6;;
45314;SDS011;31051;51.540;5.852;2023-10-31T17:22:27;5.4;;;4.7;;
45314;SDS011;31051;51.540;5.852;2023-10-31T17:35:26;5.5;;;5.0;;
45314;SDS011;31051;51.540;5.852;2023-10-31T17:48:26;6.3;;;5.2;;
45314;SDS011;31051;51.540;5.852;2023-10-31T18:01:25;6.7;;;5.1;;
45314;SDS011;31051;51.540;5.852;2023-10-31T18:14:24;6.6;;;5.7;;
45314;SDS011;31051;51.540;5.852;2023-10-31T18:27:24;7.1;;;6.3;;
45314;SDS011;31051;51.540;5.852;2023-10-31T18:40:23;7.3;;;6.4;;
45314;SDS011;31051;51.540;5.852;2023-10-31T18:53:22;7.1;;;6.2;;
45314;SDS011;31051;51.540;5.852;2023-10-31T19:06:21;8.5;;;6.2;;
45314;SDS011;31051;51.540;5.852;2023-10-31T19:19:21;7.4;;;6.0;;
45314;SDS011;31051;51.540;5.852;2023-10-31T19:32:20;8.3;;;5.7;;
45314;SDS011;31051;51.540;5.852;2023-10-31T19:45:19;7.9;;;5.7;;
45314;SDS011;31051;51.540;5.852;2023-10-31T19:58:19;8.7;;;5.3;;
45314;SDS011;31051;51.540;5.852;2023-10-31T20:11:18;8.4;;;4.9;;
45314;SDS011;31051;51.540;5.852;2023-10-31T20:24:17;7.8;;;4.8;;
45314;SDS011;31051;51.540;5.852;2023-10-31T20:37:17;8.4;;;4.9;;
45314;SDS011;31051;51.540;5.852;2023-10-31T20:50:16;9.2;;;4.9;;
45314;SDS011;31051;51.540;5.852;2023-10-31T21:03:15;8.8;;;5.0;;
45314;SDS011;31051;51.540;5.852;2023-10-31T21:16:15;8.6;;;4.5;;
45314;SDS011;31051;51.540;5.852;2023-10-31T21:29:14;8.9;;;4.5;;
45314;SDS011;31051;51.540;5.852;2023-10-31T21:42:13;9.0;;;4.2;;
45314;SDS011;31051;51.540;5.852;2023-10-31T21:55:13;9.0;;;4.0;;
45314;SDS011;31051;51.540;5.852;2023-10-31T22:08:12;8.2;;;3.9;;
45314;SDS011;31051;51.540;5.852;2023-10-31T22:21:11;8.8;;;3.8;;
45314;SDS011;31051;51.540;5.852;2023-10-31T22:34:11;8.1;;;3.7;;
45314;SDS011;31051;51.540;5.852;2023-10-31T22:47:10;8.8;;;3.5;;
45314;SDS011;31051;51.540;5.852;2023-10-31T23:00:09;8.3;;;3.6;;
45314;SDS011;31051;51.540;5.852;2023-10-31T23:13:09;8.2;;;3.1;;
45314;SDS011;31051;51.540;5.852;2023-10-31T23:26:08;8.9;;;3.3;;
45314;SDS011;31051;51.540;5.852;2023-10-31T23:39:07;8.6;;;3.1;;
45314;SDS011;31051;51.540;5.852;2023-10-31T23:52:06;8.3;;;3.3;;
